Airfield :







YOU CAN JOIN US ON...

 
LOGIN :

Register | Disclaimer

   EN    FR    IT 

 









Legend :    VFR   Marginal VFR   IFR   Intensive IFR   Very Intensive IFR
Visi :
Ceiling :
>= 8 km
>= 3000ft
5 to 8 km
1000 to 3000 ft
1500m to 5 km
500 to 1000 ft
800 to 1500m
200 to 500 ft
< 800m
< 200 ft
Symbols :   Thunderstorms  Fog  Heavy snow  Heavy precipitations  Wind > 20 kt






- Airport Elevation : 1270 ft
- IATA code : YMT


CYMT - Chapais

CURRENT METAR :
  • 281025Z AUTO 18011G17KT 9SM BKN019 OVC033 M04/M07 A2982 RMK SLP122

EXPIRED METARs :
  • 281006Z AUTO 18010G16KT 9SM -SN BKN021 BKN031 OVC050 M04/M07 A2982 RMK SLP125
  • 280950Z AUTO 18013G19KT 9SM BKN021 BKN029 OVC050 M04/M07 A2983 RMK SLP126
  • 280932Z AUTO 18011G16KT 9SM FEW027 SCT037 OVC050 M04/M07 A2984 RMK SLP129
  • 280900Z AUTO 18009G15KT 9SM -SN FEW035 OVC050 M04/M07 A2985 RMK SLP133
  • 280800Z AUTO 18009KT 9SM -SN FEW031 OVC050 M04/M07 A2987 RMK SLP140

Expired Forecast.
CZUL FIR / North America



MET'MAP, your aeronautical weather chart ! - Copyright ORBIFLY December 2007 - Disclaimer

ORBIFLY MET'MAP TEAM :

Programming & Development : Alexandra Zaïnal
Concept & original design : Baudouin d'Aumeries
Assistance for programming : Marc-Olivier Méhu
Technical & hardware support : Manuel Goepfert

Contact : metmap@orbifly.com




SOURCES & CREDITS :

   NOAA